createdAt,value
2019-01-21T00:00:39.233Z,94863.66
2019-01-21T00:03:14.426Z,94865.84
2019-01-21T00:05:38.880Z,94862.22
2019-01-21T00:08:07.528Z,94865.08
2019-01-21T00:10:36.272Z,94865.16
2019-01-21T00:13:05.614Z,94868.74
2019-01-21T00:15:34.353Z,94865.01
2019-01-21T00:18:03.002Z,94872.63
2019-01-21T00:20:31.730Z,94874.50
2019-01-21T00:23:00.448Z,94871.71
2019-01-21T00:25:29.646Z,94881.97
2019-01-21T00:27:58.354Z,94878.90
2019-01-21T00:30:27.071Z,94889.41
2019-01-21T00:32:56.010Z,94881.94
2019-01-21T00:35:24.642Z,94883.77
2019-01-21T00:37:53.278Z,94891.45
2019-01-21T00:40:21.950Z,94894.34
2019-01-21T00:42:50.579Z,94894.48
2019-01-21T00:45:19.391Z,94889.20
2019-01-21T00:47:48.071Z,94887.25
2019-01-21T00:50:16.795Z,94900.16
2019-01-21T00:52:45.419Z,94900.34
2019-01-21T00:55:14.713Z,94899.13
2019-01-21T00:57:43.412Z,94902.14
2019-01-21T01:00:15.029Z,94908.45
2019-01-21T01:02:43.802Z,94908.72
2019-01-21T01:05:13.032Z,94915.75
2019-01-21T01:07:41.878Z,94911.68
2019-01-21T01:10:12.469Z,94915.28
2019-01-21T01:12:41.112Z,94916.97
2019-01-21T01:15:12.113Z,94914.07
2019-01-21T01:17:40.768Z,94911.59
2019-01-21T01:20:15.075Z,94912.03
2019-01-21T01:22:43.767Z,94910.75
2019-01-21T01:25:12.649Z,94904.30
2019-01-21T01:27:41.389Z,94908.91
2019-01-21T01:30:12.683Z,94902.67
2019-01-21T01:32:41.653Z,94904.92
2019-01-21T01:35:11.487Z,94905.50
2019-01-21T01:37:40.322Z,94904.22
2019-01-21T01:40:12.419Z,94899.80
2019-01-21T01:42:41.220Z,94896.48
2019-01-21T01:45:13.008Z,94896.74
2019-01-21T01:47:44.891Z,94899.75
2019-01-21T01:50:12.276Z,94904.30
2019-01-21T01:52:41.165Z,94903.97
2019-01-21T01:55:11.022Z,94897.95
2019-01-21T01:57:39.732Z,94896.08
2019-01-21T02:00:14.307Z,94896.73
2019-01-21T02:02:43.133Z,94904.52
2019-01-21T02:05:11.951Z,94902.23
2019-01-21T02:07:40.696Z,94901.10
2019-01-21T02:10:12.399Z,94899.16
2019-01-21T02:12:41.020Z,94900.77
2019-01-21T02:15:12.062Z,94896.95
2019-01-21T02:17:40.968Z,94893.06
2019-01-21T02:20:12.546Z,94898.86
2019-01-21T02:22:43.708Z,94899.11
2019-01-21T02:25:13.282Z,94894.23
2019-01-21T02:28:16.584Z,94893.28
2019-01-21T02:30:57.045Z,94895.64
2019-01-21T02:33:43.041Z,94893.50
2019-01-21T02:36:14.587Z,94892.84
2019-01-21T02:39:07.493Z,94901.74
2019-01-21T02:41:37.938Z,94902.28
2019-01-21T02:44:12.450Z,94903.89
2019-01-21T02:46:52.849Z,94907.32
2019-01-21T02:49:43.913Z,94908.61
2019-01-21T02:52:24.479Z,94908.49
2019-01-21T02:55:02.171Z,94912.95
2019-01-21T02:57:42.879Z,94912.12
2019-01-21T03:00:37.228Z,94909.95
2019-01-21T03:03:31.483Z,94904.56
2019-01-21T03:06:11.971Z,94898.34
2019-01-21T03:08:49.312Z,94900.35
2019-01-21T03:11:26.962Z,94901.00
2019-01-21T03:14:10.862Z,94894.87
2019-01-21T03:17:03.642Z,94898.76
2019-01-21T03:19:44.174Z,94896.70
2019-01-21T03:22:21.555Z,94897.20
2019-01-21T03:24:59.273Z,94897.02
2019-01-21T03:27:45.939Z,94894.52
2019-01-21T03:30:29.796Z,94886.23
2019-01-21T03:33:28.814Z,94895.53
2019-01-21T03:36:06.398Z,94894.52
2019-01-21T03:38:56.003Z,94895.14
2019-01-21T03:41:33.493Z,94898.16
2019-01-21T03:44:31.162Z,94890.81
2019-01-21T03:47:18.181Z,94894.41
2019-01-21T03:50:15.767Z,94893.28
2019-01-21T03:52:47.296Z,94892.99
2019-01-21T03:55:16.933Z,94891.72
2019-01-21T03:57:57.263Z,94892.09
2019-01-21T04:00:29.187Z,94891.00
2019-01-21T04:03:12.628Z,94891.59
2019-01-21T04:05:52.805Z,94892.12
2019-01-21T04:08:27.307Z,94888.50
2019-01-21T04:10:58.952Z,94886.19
2019-01-21T04:13:51.850Z,94894.69
2019-01-21T04:16:44.646Z,94892.53
2019-01-21T04:19:18.911Z,94894.41
2019-01-21T04:22:14.631Z,94896.42
2019-01-21T04:24:55.226Z,94894.39
2019-01-21T04:27:35.508Z,94896.32
2019-01-21T04:30:19.060Z,94899.34
2019-01-21T04:32:59.713Z,94898.61
2019-01-21T04:35:31.375Z,94908.70
2019-01-21T04:38:15.034Z,94909.16
2019-01-21T04:40:58.777Z,94913.30
2019-01-21T04:43:36.176Z,94921.80
2019-01-21T04:46:13.877Z,94919.23
2019-01-21T04:48:48.354Z,94922.58
2019-01-21T04:51:45.779Z,94926.28
2019-01-21T04:54:33.966Z,94929.30
2019-01-21T04:57:18.342Z,94927.02
2019-01-21T05:00:16.573Z,94933.06
2019-01-21T05:03:00.759Z,94941.93
2019-01-21T05:05:44.353Z,94935.92
2019-01-21T05:08:34.259Z,94940.95
2019-01-21T05:11:24.096Z,94949.54
2019-01-21T05:13:55.735Z,94945.59
2019-01-21T05:16:44.226Z,94947.13
2019-01-21T05:19:24.843Z,94947.34
2019-01-21T05:22:26.960Z,94946.70
2019-01-21T05:25:16.983Z,94951.08
2019-01-21T05:27:54.948Z,94953.42
2019-01-21T05:30:32.342Z,94947.66
2019-01-21T05:33:06.770Z,94950.89
2019-01-21T05:35:38.355Z,94949.59
2019-01-21T05:38:15.678Z,94951.54
2019-01-21T05:40:47.498Z,94959.91
2019-01-21T05:43:28.136Z,94957.98
2019-01-21T05:45:59.943Z,94958.03
2019-01-21T05:48:40.262Z,94956.74
2019-01-21T05:51:14.823Z,94965.80
2019-01-21T05:53:49.168Z,94972.17
2019-01-21T05:56:35.958Z,94975.16
2019-01-21T05:59:28.659Z,94972.17
2019-01-21T06:02:05.970Z,94979.78
2019-01-21T06:04:43.454Z,94978.58
2019-01-21T06:07:24.145Z,94982.89
2019-01-21T06:10:07.533Z,94976.17
2019-01-21T06:12:48.234Z,94981.70
2019-01-21T06:15:22.595Z,94986.09
2019-01-21T06:18:00.032Z,94989.02
2019-01-21T06:20:48.347Z,94988.30
2019-01-21T06:23:26.086Z,94999.50
2019-01-21T06:26:21.808Z,94995.39
2019-01-21T06:29:17.408Z,94994.52
2019-01-21T06:31:51.586Z,94991.56
2019-01-21T06:34:41.618Z,94997.38
2019-01-21T06:37:28.007Z,95001.65
2019-01-21T06:40:26.925Z,95002.42
2019-01-21T06:42:58.456Z,95005.02
2019-01-21T06:45:38.799Z,95013.09
2019-01-21T06:48:31.561Z,95013.27
2019-01-21T06:51:24.354Z,95019.52
2019-01-21T06:54:17.188Z,95018.16
2019-01-21T06:56:54.721Z,95018.52
2019-01-21T06:59:35.080Z,95023.19
2019-01-21T07:02:12.341Z,95025.92
2019-01-21T07:05:01.912Z,95019.57
2019-01-21T07:07:59.291Z,95030.86
2019-01-21T07:10:39.593Z,95034.92
2019-01-21T07:13:16.989Z,95037.50
2019-01-21T07:16:00.838Z,95045.28
2019-01-21T07:18:35.406Z,95049.00
2019-01-21T07:21:12.992Z,95061.48
2019-01-21T07:24:02.882Z,95069.16
2019-01-21T07:26:34.424Z,95066.05
2019-01-21T07:29:24.693Z,95068.31
2019-01-21T07:31:56.246Z,95074.31
2019-01-21T07:34:30.962Z,95073.38
2019-01-21T07:37:02.519Z,95073.31
2019-01-21T07:39:39.872Z,95066.11
2019-01-21T07:42:23.591Z,95068.71
2019-01-21T07:45:13.837Z,95072.95
2019-01-21T07:48:09.949Z,95079.16
2019-01-21T07:50:50.495Z,95075.16
2019-01-21T07:53:34.103Z,95078.17
2019-01-21T07:56:14.929Z,95075.66
2019-01-21T07:59:04.706Z,95080.02
2019-01-21T08:01:48.240Z,95080.21
2019-01-21T08:04:25.727Z,95085.13
2019-01-21T08:07:00.296Z,95080.17
2019-01-21T08:09:57.573Z,95092.48
2019-01-21T08:12:31.674Z,95095.45
2019-01-21T08:15:09.197Z,95091.67
2019-01-21T08:17:56.069Z,95099.75
2019-01-21T08:20:27.683Z,95101.80
2019-01-21T08:23:02.086Z,95107.17
2019-01-21T08:25:51.854Z,95110.86
2019-01-21T08:28:43.195Z,95118.73
2019-01-21T08:31:20.765Z,95124.56
2019-01-21T08:34:01.105Z,95125.22
2019-01-21T08:36:52.179Z,95124.17
2019-01-21T08:39:41.939Z,95121.41
2019-01-21T08:42:19.493Z,95120.12
2019-01-21T08:45:13.391Z,95125.80
2019-01-21T08:47:50.811Z,95125.71
2019-01-21T08:50:31.456Z,95130.81
2019-01-21T08:53:21.117Z,95130.39
2019-01-21T08:55:55.407Z,95134.21
2019-01-21T08:58:41.896Z,95135.88
2019-01-21T09:01:38.117Z,95132.64
2019-01-21T09:04:24.870Z,95139.64
2019-01-21T09:07:05.436Z,95135.34
2019-01-21T09:09:42.786Z,95144.53
2019-01-21T09:12:23.235Z,95143.95
2019-01-21T09:15:00.525Z,95145.30
2019-01-21T09:17:44.134Z,95141.61
2019-01-21T09:20:24.545Z,95136.89
2019-01-21T09:22:59.017Z,95137.75
2019-01-21T09:25:33.509Z,95133.15
2019-01-21T09:28:22.897Z,95127.80
2019-01-21T09:31:23.203Z,95130.96
2019-01-21T09:34:17.786Z,95124.71
2019-01-21T09:37:21.393Z,95122.25
2019-01-21T09:39:58.882Z,95120.64
2019-01-21T09:42:30.484Z,95120.12
2019-01-21T09:45:19.986Z,95120.00
2019-01-21T09:47:47.390Z,95111.26
2019-01-21T09:50:16.893Z,95114.05
2019-01-21T09:52:45.785Z,95109.23
2019-01-21T09:55:16.316Z,95109.36
2019-01-21T09:57:45.614Z,95107.72
2019-01-21T10:00:17.577Z,95111.39
2019-01-21T10:02:48.452Z,95113.19
2019-01-21T10:05:17.158Z,95105.29
2019-01-21T10:07:51.521Z,95099.71
2019-01-21T10:10:35.106Z,95089.33
2019-01-21T10:13:36.103Z,95086.13
2019-01-21T10:16:19.417Z,95082.73
2019-01-21T10:19:09.202Z,95074.09
2019-01-21T10:21:49.680Z,95072.53
2019-01-21T10:24:45.722Z,95066.92
2019-01-21T10:27:35.463Z,95063.20
2019-01-21T10:30:22.329Z,95063.30
2019-01-21T10:33:03.032Z,95062.80
2019-01-21T10:35:46.053Z,95067.95
2019-01-21T10:38:43.053Z,95067.80
2019-01-21T10:41:20.734Z,95065.47
2019-01-21T10:44:13.665Z,95065.73
2019-01-21T10:46:45.321Z,95065.47
2019-01-21T10:49:22.868Z,95065.69
2019-01-21T10:52:11.934Z,95063.23
2019-01-21T10:54:55.400Z,95058.05
2019-01-21T10:57:27.060Z,95051.95
2019-01-21T11:00:18.542Z,95052.96
2019-01-21T11:03:12.684Z,95056.78
2019-01-21T11:05:50.312Z,95060.16
2019-01-21T11:08:24.688Z,95062.36
2019-01-21T11:11:08.118Z,95054.58
2019-01-21T11:13:42.669Z,95054.20
2019-01-21T11:16:17.112Z,95057.30
2019-01-21T11:18:57.679Z,95054.81
2019-01-21T11:21:29.284Z,95055.19
2019-01-21T11:24:21.934Z,95052.39
2019-01-21T11:26:56.507Z,95050.27
2019-01-21T11:29:39.977Z,95040.76
2019-01-21T11:32:26.721Z,95045.95
2019-01-21T11:35:23.022Z,95044.59
2019-01-21T11:38:12.400Z,95045.10
2019-01-21T11:40:46.620Z,95043.55
2019-01-21T11:43:24.272Z,95039.06
2019-01-21T11:46:01.816Z,95040.34
2019-01-21T11:48:45.357Z,95037.28
2019-01-21T11:51:19.881Z,95035.22
2019-01-21T11:54:03.674Z,95032.68
2019-01-21T11:56:44.377Z,95028.09
2019-01-21T11:59:18.859Z,95027.00
2019-01-21T12:01:53.244Z,95029.13
2019-01-21T12:04:40.103Z,95026.72
2019-01-21T12:07:15.364Z,95024.09
2019-01-21T12:10:11.293Z,95022.58
2019-01-21T12:12:48.489Z,95030.56
2019-01-21T12:15:20.020Z,95029.00
2019-01-21T12:18:00.418Z,95020.52
2019-01-21T12:20:37.634Z,95024.59
2019-01-21T12:23:24.265Z,95022.14
2019-01-21T12:26:01.783Z,95026.48
2019-01-21T12:28:33.378Z,95020.09
2019-01-21T12:31:13.728Z,95022.50
2019-01-21T12:33:54.663Z,95017.56
2019-01-21T12:36:26.202Z,95014.85
2019-01-21T12:39:09.931Z,95022.41
2019-01-21T12:41:59.811Z,95012.72
2019-01-21T12:44:43.207Z,95012.11
2019-01-21T12:47:17.464Z,95015.95
2019-01-21T12:50:01.052Z,95020.29
2019-01-21T12:52:35.399Z,95015.27
2019-01-21T12:55:22.139Z,95018.75
2019-01-21T12:58:16.559Z,95017.89
2019-01-21T13:01:06.110Z,95016.13
2019-01-21T13:04:01.637Z,95009.55
2019-01-21T13:06:49.370Z,95017.13
2019-01-21T13:09:26.471Z,95020.20
2019-01-21T13:12:00.713Z,95016.38
2019-01-21T13:14:56.459Z,95022.50
2019-01-21T13:17:28.059Z,95019.68
2019-01-21T13:20:17.069Z,95016.03
2019-01-21T13:22:54.525Z,95022.48
2019-01-21T13:25:41.587Z,95021.89
2019-01-21T13:28:13.135Z,95019.08
2019-01-21T13:30:59.581Z,95012.30
2019-01-21T13:33:56.656Z,95018.56
2019-01-21T13:36:33.988Z,95016.00
2019-01-21T13:39:08.137Z,95015.00
2019-01-21T13:41:52.062Z,95020.83
2019-01-21T13:44:23.741Z,95019.02
2019-01-21T13:47:13.241Z,95011.61
2019-01-21T13:49:48.152Z,95013.94
2019-01-21T13:52:40.582Z,95016.14
2019-01-21T13:55:29.898Z,95008.56
2019-01-21T13:58:01.537Z,95019.96
2019-01-21T14:00:39.449Z,95014.84
2019-01-21T14:03:11.211Z,95011.69
2019-01-21T14:05:54.612Z,95012.61
2019-01-21T14:08:34.843Z,95009.44
2019-01-21T14:11:22.986Z,95011.56
2019-01-21T14:13:54.568Z,95010.50
2019-01-21T14:16:29.026Z,95014.27
2019-01-21T14:19:17.323Z,95013.89
2019-01-21T14:22:03.732Z,95023.84
2019-01-21T14:24:41.080Z,95019.70
2019-01-21T14:27:38.468Z,95023.63
2019-01-21T14:30:12.935Z,95025.72
2019-01-21T14:32:47.385Z,95019.73
2019-01-21T14:35:28.937Z,95016.52
2019-01-21T14:38:09.496Z,95012.14
2019-01-21T14:40:59.293Z,95017.44
2019-01-21T14:43:33.958Z,95017.55
2019-01-21T14:46:23.372Z,95024.80
2019-01-21T14:48:54.918Z,95028.23
2019-01-21T14:51:52.660Z,95029.67
2019-01-21T14:54:24.301Z,95034.91
2019-01-21T14:57:04.856Z,95038.78
2019-01-21T14:59:36.447Z,95033.17
2019-01-21T15:02:23.302Z,95032.25
2019-01-21T15:05:18.997Z,95032.45
2019-01-21T15:08:02.651Z,95022.97
2019-01-21T15:10:37.273Z,95023.59
2019-01-21T15:13:14.871Z,95025.88
2019-01-21T15:15:52.228Z,95023.60
2019-01-21T15:18:35.893Z,95014.45
2019-01-21T15:21:16.322Z,95023.05
2019-01-21T15:23:54.061Z,95031.25
2019-01-21T15:26:28.325Z,95031.36
2019-01-21T15:29:25.887Z,95029.42
2019-01-21T15:32:00.026Z,95034.31
2019-01-21T15:34:40.659Z,95032.45
2019-01-21T15:37:12.247Z,95037.44
2019-01-21T15:40:05.218Z,95036.58
2019-01-21T15:42:51.883Z,95035.82
2019-01-21T15:45:52.065Z,95039.64
2019-01-21T15:48:38.886Z,95045.11
2019-01-21T15:51:19.117Z,95043.88
2019-01-21T15:53:53.797Z,95047.34
2019-01-21T15:56:34.269Z,95048.52
2019-01-21T15:59:08.451Z,95044.98
2019-01-21T16:01:40.196Z,95046.83
2019-01-21T16:04:17.671Z,95049.36
2019-01-21T16:06:58.365Z,95039.16
2019-01-21T16:09:48.039Z,95053.41
2019-01-21T16:12:22.093Z,95055.10
2019-01-21T16:15:19.325Z,95052.71
2019-01-21T16:17:50.911Z,95058.73
2019-01-21T16:20:22.868Z,95065.03
2019-01-21T16:23:06.430Z,95063.75
2019-01-21T16:25:38.746Z,95070.22
2019-01-21T16:28:22.092Z,95066.39
2019-01-21T16:30:56.487Z,95061.22
2019-01-21T16:33:46.180Z,95064.14
2019-01-21T16:36:29.495Z,95064.08
2019-01-21T16:39:01.141Z,95069.22
2019-01-21T16:41:44.864Z,95063.33
2019-01-21T16:44:13.682Z,95062.34
2019-01-21T16:46:52.419Z,95064.73
2019-01-21T16:49:21.083Z,95065.91
2019-01-21T16:51:49.710Z,95071.23
2019-01-21T16:54:18.399Z,95073.33
2019-01-21T16:56:47.102Z,95070.45
2019-01-21T16:59:15.721Z,95073.06
2019-01-21T17:01:44.447Z,95065.77
2019-01-21T17:04:13.594Z,95080.77
2019-01-21T17:06:42.292Z,95077.60
2019-01-21T17:09:11.218Z,95074.89
2019-01-21T17:11:39.850Z,95079.36
2019-01-21T17:14:10.156Z,95080.83
2019-01-21T17:16:38.848Z,95077.46
2019-01-21T17:19:07.687Z,95078.08
2019-01-21T17:21:36.318Z,95079.41
2019-01-21T17:24:05.248Z,95077.40
2019-01-21T17:26:33.973Z,95078.52
2019-01-21T17:29:02.610Z,95077.27
2019-01-21T17:31:31.229Z,95078.86
2019-01-21T17:33:59.951Z,95072.34
2019-01-21T17:36:28.657Z,95075.47
2019-01-21T17:38:57.460Z,95075.78
2019-01-21T17:41:26.149Z,95075.34
2019-01-21T17:43:54.767Z,95074.82
2019-01-21T17:46:23.417Z,95076.14
2019-01-21T17:48:52.107Z,95082.02
2019-01-21T17:51:20.835Z,95081.28
2019-01-21T17:53:51.441Z,95080.88
2019-01-21T17:56:19.925Z,95083.88
2019-01-21T17:58:48.663Z,95082.86
2019-01-21T18:01:17.353Z,95080.00
2019-01-21T18:03:45.998Z,95084.16
2019-01-21T18:06:14.870Z,95081.03
2019-01-21T18:08:46.278Z,95082.77
2019-01-21T18:11:14.921Z,95083.52
2019-01-21T18:13:43.599Z,95088.67
2019-01-21T18:16:12.244Z,95080.59
2019-01-21T18:18:40.927Z,95086.41
2019-01-21T18:21:09.654Z,95080.17
2019-01-21T18:23:38.388Z,95082.16
2019-01-21T18:26:07.013Z,95078.96
2019-01-21T18:28:35.762Z,95084.70
2019-01-21T18:31:04.400Z,95088.77
2019-01-21T18:33:33.132Z,95084.80
2019-01-21T18:36:02.064Z,95086.99
2019-01-21T18:38:30.688Z,95079.06
2019-01-21T18:40:59.319Z,95083.80
2019-01-21T18:43:28.051Z,95086.31
2019-01-21T18:45:56.748Z,95084.23
2019-01-21T18:48:25.378Z,95090.28
2019-01-21T18:50:54.053Z,95090.80
2019-01-21T18:53:22.752Z,95094.05
2019-01-21T18:55:51.461Z,95091.05
2019-01-21T18:58:20.125Z,95091.82
2019-01-21T19:00:48.823Z,95096.70
2019-01-21T19:03:17.575Z,95095.47
2019-01-21T19:05:46.254Z,95093.89
2019-01-21T19:08:14.947Z,95094.94
2019-01-21T19:10:43.660Z,95084.84
2019-01-21T19:13:12.351Z,95092.58
2019-01-21T19:15:40.984Z,95088.23
2019-01-21T19:18:09.690Z,95088.91
2019-01-21T19:20:38.417Z,95093.36
2019-01-21T19:23:07.050Z,95091.87
2019-01-21T19:25:35.692Z,95096.98
2019-01-21T19:28:04.646Z,95091.80
2019-01-21T19:30:33.319Z,95091.27
2019-01-21T19:33:01.962Z,95092.18
2019-01-21T19:35:33.213Z,95091.73
2019-01-21T19:38:02.150Z,95092.89
2019-01-21T19:40:32.170Z,95092.80
2019-01-21T19:43:00.929Z,95097.48
2019-01-21T19:45:29.666Z,95096.95
2019-01-21T19:47:58.364Z,95091.80
2019-01-21T19:50:27.097Z,95087.83
2019-01-21T19:52:55.739Z,95087.44
2019-01-21T19:55:30.448Z,95086.20
2019-01-21T19:57:59.230Z,95094.55
2019-01-21T20:00:27.959Z,95093.59
2019-01-21T20:02:56.669Z,95089.02
2019-01-21T20:05:25.344Z,95087.70
2019-01-21T20:07:54.038Z,95083.30
2019-01-21T20:10:24.373Z,95087.48
2019-01-21T20:12:53.046Z,95089.58
2019-01-21T20:15:21.874Z,95086.67
2019-01-21T20:17:50.439Z,95083.15
2019-01-21T20:20:31.071Z,95083.38
2019-01-21T20:22:59.712Z,95083.45
2019-01-21T20:25:28.348Z,95083.06
2019-01-21T20:27:57.022Z,95086.34
2019-01-21T20:30:26.159Z,95087.20
2019-01-21T20:32:54.773Z,95088.43
2019-01-21T20:35:23.628Z,95088.02
2019-01-21T20:37:52.255Z,95083.63
2019-01-21T20:40:29.038Z,95079.02
2019-01-21T20:42:57.796Z,95080.30
2019-01-21T20:45:26.434Z,95078.31
2019-01-21T20:47:55.101Z,95084.94
2019-01-21T20:50:29.540Z,95081.80
2019-01-21T20:52:58.274Z,95087.08
2019-01-21T20:55:27.383Z,95080.94
2019-01-21T20:57:55.943Z,95083.92
2019-01-21T21:00:29.228Z,95091.52
2019-01-21T21:02:58.330Z,95082.87
2019-01-21T21:05:26.959Z,95084.37
2019-01-21T21:07:55.539Z,95078.77
2019-01-21T21:10:24.381Z,95079.63
2019-01-21T21:12:53.023Z,95078.17
2019-01-21T21:15:24.164Z,95069.92
2019-01-21T21:17:52.937Z,95068.41
2019-01-21T21:20:21.572Z,95078.46
2019-01-21T21:22:50.201Z,95076.30
2019-01-21T21:25:22.139Z,95080.50
2019-01-21T21:27:50.772Z,95074.08
2019-01-21T21:30:30.557Z,95076.05
2019-01-21T21:32:59.184Z,95078.91
2019-01-21T21:35:27.809Z,95080.73
2019-01-21T21:37:56.475Z,95079.49
2019-01-21T21:40:25.401Z,95082.00
2019-01-21T21:42:54.028Z,95076.58
2019-01-21T21:45:23.105Z,95082.14
2019-01-21T21:47:52.204Z,95080.27
2019-01-21T21:50:23.918Z,95074.13
2019-01-21T21:52:52.588Z,95074.61
2019-01-21T21:55:21.213Z,95073.06
2019-01-21T21:57:49.846Z,95074.08
2019-01-21T22:00:21.398Z,95068.41
2019-01-21T22:02:50.039Z,95067.78
2019-01-21T22:05:19.777Z,95069.14
2019-01-21T22:07:48.715Z,95063.72
2019-01-21T22:10:20.512Z,95060.20
2019-01-21T22:12:50.353Z,95059.61
2019-01-21T22:15:20.924Z,95059.70
2019-01-21T22:17:49.550Z,95065.27
2019-01-21T22:20:20.343Z,95064.11
2019-01-21T22:22:49.251Z,95060.28
2019-01-21T22:25:18.345Z,95054.80
2019-01-21T22:27:46.973Z,95053.97
2019-01-21T22:30:18.456Z,95057.95
2019-01-21T22:32:47.027Z,95049.64
2019-01-21T22:35:15.663Z,95052.53
2019-01-21T23:55:24.647Z,95025.28
2019-01-21T23:57:53.355Z,95023.00
